Time;durP1;ratioP1;P1;durP2;ratioP2;P2;SDS_P1;SDS_P2;PMS_P1;PMS_P2;Temp;Humidity;BMP_temperature;BMP_pressure;BME280_temperature;BME280_humidity;BME280_pressure;Samples;Min_cycle;Max_cycle;Signal;HPM_P1;HPM_P2
2022/11/11 00:02:03;;;;;;;7.20;6.53;;;8.40;99.90;;;;;;4880827;29;20495;-81
2022/11/11 00:04:31;;;;;;;6.47;5.87;;;8.40;99.90;;;;;;4887294;29;21163;-81
2022/11/11 00:06:59;;;;;;;7.13;5.53;;;8.50;99.90;;;;;;4884540;29;20473;-79
2022/11/11 00:09:29;;;;;;;6.30;5.80;;;8.50;99.90;;;;;;4882301;29;20461;-82
2022/11/11 00:11:57;;;;;;;6.77;6.17;;;8.60;99.90;;;;;;4885142;29;20481;-82
2022/11/11 00:14:25;;;;;;;5.27;4.87;;;8.50;99.90;;;;;;4888563;29;20470;-81
2022/11/11 00:25:17;;;;;;;6.23;5.67;;;8.20;99.90;;;;;;4886647;29;20478;-81
2022/11/11 00:27:45;;;;;;;6.13;5.73;;;8.20;99.90;;;;;;4886743;29;20517;-80
2022/11/11 00:30:13;;;;;;;7.90;5.70;;;8.40;1.00;;;;;;4886427;29;20472;-80
2022/11/11 00:32:42;;;;;;;7.60;6.33;;;8.40;99.90;;;;;;4883571;29;20895;-80
2022/11/11 00:38:07;;;;;;;7.20;6.17;;;8.30;99.90;;;;;;4889934;29;20565;-80
2022/11/11 00:40:37;;;;;;;7.10;6.50;;;8.20;99.90;;;;;;4888703;29;20468;-80
2022/11/11 00:43:05;;;;;;;7.60;6.90;;;8.30;1.00;;;;;;4887083;29;20462;-80
2022/11/11 00:45:33;;;;;;;7.80;6.97;;;8.30;99.90;;;;;;4890164;29;20553;-81
2022/11/11 00:51:00;;;;;;;8.13;7.33;;;8.20;99.90;;;;;;4889555;29;20556;-81
2022/11/11 00:53:31;;;;;;;7.40;6.70;;;8.40;99.90;;;;;;4889758;29;20470;-80
2022/11/11 00:56:01;;;;;;;7.70;6.90;;;8.30;99.90;;;;;;4887314;29;20474;-80
2022/11/11 00:58:29;;;;;;;7.83;7.13;;;8.40;1.00;;;;;;4889509;29;20640;-80
2022/11/11 01:00:57;;;;;;;7.33;6.67;;;8.30;99.90;;;;;;4888731;29;20989;-81
2022/11/11 01:03:25;;;;;;;9.33;7.00;;;8.20;99.90;;;;;;4891104;29;20462;-81
2022/11/11 01:05:54;;;;;;;7.40;6.80;;;8.10;99.90;;;;;;4885133;29;20472;-81
2022/11/11 01:08:25;;;;;;;13.53;7.17;;;8.20;99.90;;;;;;4894834;29;21102;-81
2022/11/11 01:10:54;;;;;;;8.97;8.07;;;8.30;99.90;;;;;;4892281;29;20466;-81
2022/11/11 01:13:25;;;;;;;7.87;7.23;;;8.30;99.90;;;;;;4888737;29;20472;-79
2022/11/11 01:15:59;;;;;;;9.37;7.30;;;8.20;99.90;;;;;;4885987;29;20543;-81
2022/11/11 01:18:28;;;;;;;8.27;6.30;;;7.90;99.90;;;;;;4888823;29;20492;-80
2022/11/11 01:21:01;;;;;;;8.53;6.60;;;8.10;99.90;;;;;;4883341;29;21140;-80
2022/11/11 01:23:32;;;;;;;6.77;6.17;;;8.00;99.90;;;;;;4886182;29;20456;-80
2022/11/11 01:26:04;;;;;;;7.80;5.87;;;8.00;99.90;;;;;;4886575;29;20492;-80
2022/11/11 01:28:34;;;;;;;7.00;5.77;;;8.10;99.90;;;;;;4884886;29;20481;-79
2022/11/11 01:31:04;;;;;;;5.97;5.47;;;7.80;99.90;;;;;;4884979;29;20521;-79
2022/11/11 01:33:32;;;;;;;7.07;5.60;;;7.70;99.90;;;;;;4883771;29;20530;-79
2022/11/11 01:36:08;;;;;;;6.00;5.20;;;7.90;99.90;;;;;;4891717;29;20466;-81
2022/11/11 01:38:37;;;;;;;5.63;5.10;;;7.80;99.90;;;;;;4886401;29;20531;-79
2022/11/11 01:43:50;;;;;;;6.07;5.53;;;7.70;99.90;;;;;;4888733;29;21032;-79
2022/11/11 01:46:28;;;;;;;4.93;4.63;;;8.00;1.00;;;;;;4886637;29;20463;-81
2022/11/11 01:49:19;;;;;;;5.47;5.17;;;7.90;99.90;;;;;;4886082;29;20567;-80
2022/11/11 01:51:58;;;;;;;5.53;4.87;;;7.90;99.90;;;;;;4885792;29;20471;-79
2022/11/11 01:54:32;;;;;;;11.37;6.03;;;7.80;99.90;;;;;;4888617;29;20583;-80
2022/11/11 01:57:05;;;;;;;5.47;5.07;;;7.90;1.00;;;;;;4890198;29;20523;-80
2022/11/11 01:59:37;;;;;;;6.13;5.70;;;7.80;99.90;;;;;;4886629;29;20479;-80
2022/11/11 02:02:11;;;;;;;6.10;5.40;;;7.80;99.90;;;;;;4883504;29;21053;-81
2022/11/11 02:07:26;;;;;;;6.93;5.50;;;7.90;99.90;;;;;;4884869;29;20494;-80
2022/11/11 02:09:57;;;;;;;6.20;5.80;;;7.90;99.90;;;;;;4885180;29;20886;-81
2022/11/11 02:15:13;;;;;;;5.40;5.10;;;7.60;99.90;;;;;;4882903;29;20454;-81
2022/11/11 02:17:41;;;;;;;6.37;5.77;;;7.50;99.90;;;;;;4885394;29;20488;-79
2022/11/11 02:20:14;;;;;;;7.47;5.80;;;7.70;99.90;;;;;;4883401;29;20481;-81
2022/11/11 02:22:48;;;;;;;6.00;5.40;;;7.60;99.90;;;;;;4885764;29;20973;-80
2022/11/11 02:25:22;;;;;;;4.97;4.67;;;7.50;99.90;;;;;;4887627;29;20492;-81
2022/11/11 02:27:52;;;;;;;6.27;5.77;;;7.50;99.90;;;;;;4887401;29;20494;-80
2022/11/11 02:30:21;;;;;;;7.03;5.27;;;7.60;99.90;;;;;;4887411;29;20461;-79
2022/11/11 02:32:52;;;;;;;6.47;5.83;;;7.70;99.90;;;;;;4883627;29;21008;-80
2022/11/11 02:35:24;;;;;;;7.10;5.80;;;7.80;99.90;;;;;;4886231;29;20490;-80
2022/11/11 02:37:53;;;;;;;5.47;4.93;;;7.90;99.90;;;;;;4887541;29;20541;-79
2022/11/11 02:40:26;;;;;;;5.50;5.10;;;7.60;99.90;;;;;;4889202;29;20481;-79
2022/11/11 02:42:55;;;;;;;6.03;5.63;;;7.40;99.90;;;;;;4885959;29;20552;-80
2022/11/11 02:45:23;;;;;;;5.27;4.83;;;7.50;99.90;;;;;;4899147;29;20515;-79
2022/11/11 02:47:51;;;;;;;6.00;5.50;;;7.30;99.90;;;;;;4882239;29;20492;-81
2022/11/11 02:50:19;;;;;;;6.50;5.83;;;7.40;99.90;;;;;;4884050;29;20564;-80
2022/11/11 02:52:48;;;;;;;5.37;5.00;;;7.50;99.90;;;;;;4885448;29;20928;-80
2022/11/11 02:55:16;;;;;;;5.60;5.20;;;7.60;99.90;;;;;;4889336;29;20468;-81
2022/11/11 02:57:46;;;;;;;5.83;5.33;;;7.50;99.90;;;;;;4889812;29;20491;-79
2022/11/11 03:00:16;;;;;;;5.93;5.53;;;7.50;99.90;;;;;;4884444;29;20480;-79
2022/11/11 03:02:44;;;;;;;5.33;4.90;;;7.40;99.90;;;;;;4885315;29;20471;-80
2022/11/11 03:05:13;;;;;;;5.63;5.23;;;7.30;99.90;;;;;;4884428;29;20534;-78
2022/11/11 03:07:41;;;;;;;5.07;4.67;;;7.30;99.90;;;;;;4883038;29;20861;-80
2022/11/11 03:10:09;;;;;;;5.33;4.83;;;7.30;99.90;;;;;;4883967;29;20475;-80
2022/11/11 03:12:38;;;;;;;5.40;5.00;;;7.30;99.90;;;;;;4887371;29;20472;-81
2022/11/11 03:15:08;;;;;;;6.60;5.60;;;7.30;99.90;;;;;;4885943;29;20474;-80
2022/11/11 03:17:38;;;;;;;6.77;6.17;;;7.30;99.90;;;;;;4885638;29;20491;-81
2022/11/11 03:23:03;;;;;;;5.43;4.93;;;7.10;99.90;;;;;;4883291;29;20562;-79
2022/11/11 03:25:37;;;;;;;5.83;5.33;;;7.00;99.90;;;;;;4887214;29;20532;-79
2022/11/11 03:28:06;;;;;;;7.30;6.00;;;7.20;99.90;;;;;;4883112;29;21044;-79
2022/11/11 03:30:36;;;;;;;5.87;5.47;;;7.40;1.00;;;;;;4883792;29;20500;-80
2022/11/11 03:33:05;;;;;;;6.87;6.20;;;7.50;1.00;;;;;;4883698;29;20505;-80
2022/11/11 03:35:33;;;;;;;5.57;5.10;;;7.50;99.90;;;;;;4885346;29;20543;-79
2022/11/11 03:38:22;;;;;;;6.33;5.60;;;7.50;99.90;;;;;;4885513;29;20582;-80
2022/11/11 03:40:52;;;;;;;5.97;5.57;;;7.60;99.90;;;;;;4882515;29;20860;-81
2022/11/11 03:43:22;;;;;;;4.90;4.60;;;7.50;99.90;;;;;;4886903;29;20504;-79
2022/11/11 03:45:53;;;;;;;7.73;5.30;;;7.40;99.90;;;;;;4885167;29;21028;-80
2022/11/11 03:48:22;;;;;;;6.90;6.30;;;7.30;99.90;;;;;;4883623;29;20991;-80
2022/11/11 03:50:50;;;;;;;5.97;5.47;;;7.10;99.90;;;;;;4886311;29;20454;-80
2022/11/11 03:53:20;;;;;;;6.00;5.40;;;7.10;99.90;;;;;;4885956;29;20570;-80
2022/11/11 03:55:50;;;;;;;4.80;4.50;;;7.20;99.90;;;;;;4880133;29;20536;-81
2022/11/11 03:58:18;;;;;;;5.57;5.07;;;7.20;99.90;;;;;;4882605;29;20489;-81
2022/11/11 04:00:47;;;;;;;6.33;5.77;;;7.00;99.90;;;;;;4886759;29;20489;-79
2022/11/11 04:11:39;;;;;;;7.20;6.50;;;7.10;99.90;;;;;;4882794;29;21024;-81
2022/11/11 04:16:55;;;;;;;5.63;5.23;;;7.20;99.90;;;;;;4882213;29;20490;-81
2022/11/11 04:22:10;;;;;;;6.33;5.60;;;7.20;99.90;;;;;;4884571;29;20465;-81
2022/11/11 04:27:24;;;;;;;6.90;5.47;;;7.20;99.90;;;;;;4885966;29;20489;-81
2022/11/11 04:29:51;;;;;;;6.00;5.47;;;7.10;99.90;;;;;;4883944;29;20486;-81
2022/11/11 04:32:37;;;;;;;6.27;5.80;;;7.20;99.90;;;;;;4887486;29;20495;-82
2022/11/11 04:35:09;;;;;;;7.23;5.73;;;7.10;99.90;;;;;;4884001;29;20499;-81
2022/11/11 04:37:45;;;;;;;6.97;6.13;;;7.00;99.90;;;;;;4886352;29;20512;-80
2022/11/11 04:42:59;;;;;;;5.57;5.17;;;7.10;99.90;;;;;;4886498;29;20534;-80
2022/11/11 04:45:34;;;;;;;7.13;5.20;;;7.00;99.90;;;;;;4888564;29;20547;-80
2022/11/11 04:48:05;;;;;;;6.10;5.50;;;7.10;99.90;;;;;;4883318;29;20907;-80
2022/11/11 04:50:37;;;;;;;6.13;5.73;;;7.00;99.90;;;;;;4879510;29;20461;-80
2022/11/11 04:53:06;;;;;;;6.43;5.83;;;7.20;99.90;;;;;;4886242;29;20552;-81
2022/11/11 04:58:22;;;;;;;12.90;6.50;;;6.90;99.90;;;;;;4875808;29;20590;-79
2022/11/11 05:00:50;;;;;;;5.83;5.33;;;7.10;99.90;;;;;;4880917;29;20483;-80
2022/11/11 05:03:20;;;;;;;6.67;5.90;;;7.10;99.90;;;;;;4887587;29;20574;-79
2022/11/11 05:08:57;;;;;;;6.50;6.03;;;7.00;99.90;;;;;;4890541;29;20934;-80
2022/11/11 05:11:27;;;;;;;7.07;5.30;;;7.00;99.90;;;;;;4888297;29;20462;-80
2022/11/11 05:22:22;;;;;;;7.70;6.73;;;7.00;99.90;;;;;;4883459;29;20685;-81
2022/11/11 05:27:37;;;;;;;7.03;6.47;;;6.90;99.90;;;;;;4889002;29;20577;-80
2022/11/11 05:30:07;;;;;;;6.37;5.87;;;7.00;99.90;;;;;;4884317;29;20449;-80
2022/11/11 05:32:35;;;;;;;7.50;6.20;;;7.10;99.90;;;;;;4889408;29;20486;-81
2022/11/11 05:35:03;;;;;;;7.10;6.47;;;7.10;99.90;;;;;;4889693;29;20468;-81
2022/11/11 05:37:33;;;;;;;6.00;5.33;;;7.00;99.90;;;;;;4885136;29;20476;-80
2022/11/11 05:40:01;;;;;;;5.90;5.50;;;7.00;99.90;;;;;;4887004;29;20472;-81
2022/11/11 05:42:29;;;;;;;6.77;6.23;;;7.20;99.90;;;;;;4884621;29;20464;-81
2022/11/11 05:44:58;;;;;;;6.85;6.15;;;7.10;99.90;;;;;;4885790;29;20460;-80
2022/11/11 05:47:26;;;;;;;6.03;5.53;;;6.90;99.90;;;;;;4885135;29;20256;-79
2022/11/11 05:49:54;;;;;;;6.70;6.00;;;6.90;99.90;;;;;;4884507;29;21125;-80
2022/11/11 05:52:22;;;;;;;5.43;5.07;;;6.80;99.90;;;;;;4885261;29;20499;-80
2022/11/11 05:54:52;;;;;;;6.60;5.43;;;6.70;99.90;;;;;;4901893;29;20511;-81
2022/11/11 05:57:20;;;;;;;6.17;5.77;;;6.90;99.90;;;;;;4891496;29;20472;-80
2022/11/11 05:59:48;;;;;;;6.40;5.90;;;6.90;99.90;;;;;;4882732;29;20475;-80
2022/11/11 06:02:16;;;;;;;6.70;5.23;;;6.90;99.90;;;;;;4889975;29;20516;-80
2022/11/11 06:04:45;;;;;;;5.70;5.40;;;6.90;99.90;;;;;;4883765;29;20464;-80
2022/11/11 06:07:13;;;;;;;5.93;5.43;;;6.90;99.90;;;;;;4884304;29;20503;-81
2022/11/11 06:09:41;;;;;;;6.07;5.57;;;7.00;99.90;;;;;;4888861;29;20803;-81
2022/11/11 06:12:10;;;;;;;6.40;5.90;;;7.00;99.90;;;;;;4885924;29;20468;-81
2022/11/11 06:14:38;;;;;;;5.80;5.40;;;6.90;99.90;;;;;;4890415;29;20463;-82
2022/11/11 06:17:07;;;;;;;6.40;5.90;;;7.00;99.90;;;;;;4885688;29;21097;-81
2022/11/11 06:19:35;;;;;;;6.13;5.63;;;7.00;99.90;;;;;;4889016;29;20550;-81
2022/11/11 06:22:05;;;;;;;14.73;6.30;;;7.00;99.90;;;;;;4886471;29;21314;-80
2022/11/11 06:24:34;;;;;;;5.73;5.20;;;7.00;99.90;;;;;;4885484;29;20471;-81
2022/11/11 06:27:01;;;;;;;5.40;5.10;;;6.90;99.90;;;;;;4886189;29;20469;-82
2022/11/11 06:29:30;;;;;;;8.30;6.40;;;6.80;1.00;;;;;;4883906;29;20512;-82
2022/11/11 06:31:59;;;;;;;6.20;5.70;;;6.70;99.90;;;;;;4886008;29;20498;-82
2022/11/11 06:34:27;;;;;;;5.63;5.20;;;6.80;99.90;;;;;;4887565;29;20837;-81
2022/11/11 06:36:55;;;;;;;6.43;5.93;;;6.80;1.00;;;;;;4884986;29;20460;-81
2022/11/11 06:39:23;;;;;;;5.90;5.60;;;6.90;1.00;;;;;;4885799;29;20524;-83
2022/11/11 06:41:51;;;;;;;9.50;6.00;;;7.00;99.90;;;;;;4883196;29;20494;-82
2022/11/11 06:44:19;;;;;;;6.20;5.70;;;7.00;99.90;;;;;;4883762;29;20519;-82
2022/11/11 06:46:49;;;;;;;6.40;5.90;;;6.90;99.90;;;;;;4886865;29;20528;-83
2022/11/11 06:49:17;;;;;;;7.07;6.53;;;7.10;99.90;;;;;;4887871;29;20466;-83
2022/11/11 06:51:45;;;;;;;6.10;5.80;;;7.10;99.90;;;;;;4885983;29;20462;-82
2022/11/11 06:54:14;;;;;;;7.97;7.30;;;7.20;99.90;;;;;;4884955;29;20938;-84
2022/11/11 06:56:42;;;;;;;6.80;6.20;;;7.20;99.90;;;;;;4884645;29;20857;-83
2022/11/11 06:59:10;;;;;;;7.90;7.10;;;7.10;99.90;;;;;;4886403;29;20487;-82
2022/11/11 07:01:38;;;;;;;6.80;6.30;;;7.10;99.90;;;;;;4884100;29;20917;-82
2022/11/11 07:04:08;;;;;;;6.57;6.07;;;7.20;1.00;;;;;;4880462;29;20976;-83
2022/11/11 07:06:36;;;;;;;6.30;5.80;;;7.10;1.00;;;;;;4887086;29;20464;-81
2022/11/11 07:09:04;;;;;;;6.03;5.57;;;7.10;1.00;;;;;;4889230;29;20487;-82
2022/11/11 07:11:32;;;;;;;6.93;6.33;;;7.20;1.00;;;;;;4895130;29;20463;-82
2022/11/11 07:14:00;;;;;;;7.30;6.60;;;7.10;1.00;;;;;;4886172;29;20457;-82
2022/11/11 07:16:29;;;;;;;6.97;6.20;;;7.10;1.00;;;;;;4888533;29;20466;-82
2022/11/11 07:18:57;;;;;;;6.63;6.10;;;7.30;1.00;;;;;;4890775;29;20940;-82
2022/11/11 07:21:26;;;;;;;9.43;7.70;;;7.40;1.00;;;;;;4889948;29;20993;-82
2022/11/11 07:23:54;;;;;;;8.07;7.30;;;7.60;1.00;;;;;;4890053;29;20507;-82
2022/11/11 07:26:22;;;;;;;8.67;7.87;;;7.80;1.00;;;;;;4885420;29;20501;-83
2022/11/11 07:28:50;;;;;;;8.50;6.80;;;7.90;99.90;;;;;;4886657;29;20579;-82
2022/11/11 07:31:18;;;;;;;8.83;7.97;;;7.90;99.90;;;;;;4884727;29;20456;-82
2022/11/11 07:33:47;;;;;;;8.50;7.70;;;7.80;99.90;;;;;;4890867;29;20462;-82
2022/11/11 07:36:15;;;;;;;7.90;7.30;;;7.80;1.00;;;;;;4889373;29;20477;-83
2022/11/11 07:38:44;;;;;;;8.53;7.87;;;7.80;1.00;;;;;;4889535;29;20575;-83
2022/11/11 07:41:12;;;;;;;8.83;7.97;;;8.00;1.00;;;;;;4888317;29;20576;-82
2022/11/11 07:43:40;;;;;;;9.47;8.40;;;8.20;1.00;;;;;;4888914;29;20997;-83
2022/11/11 07:46:08;;;;;;;9.80;8.97;;;8.10;1.00;;;;;;4885789;29;20527;-81
2022/11/11 07:48:37;;;;;;;8.47;7.80;;;8.10;1.00;;;;;;4886835;29;20492;-83
2022/11/11 07:51:05;;;;;;;9.25;8.55;;;8.10;99.90;;;;;;4883218;29;20475;-84
2022/11/11 07:53:34;;;;;;;8.73;8.03;;;8.10;99.90;;;;;;4884664;29;20323;-83
2022/11/11 07:56:03;;;;;;;8.47;7.90;;;8.20;1.00;;;;;;4883652;29;20459;-84
2022/11/11 07:58:31;;;;;;;8.60;7.80;;;8.30;99.90;;;;;;4887625;29;20915;-83
2022/11/11 08:01:00;;;;;;;10.20;9.23;;;8.40;29.20;;;;;;4885440;29;20477;-85
2022/11/11 08:03:48;;;;;;;12.10;8.97;;;8.40;19.50;;;;;;4885674;29;20992;-86
2022/11/11 08:06:17;;;;;;;11.33;10.33;;;8.70;85.30;;;;;;4887139;29;20971;-84
2022/11/11 08:08:46;;;;;;;12.47;11.23;;;8.80;1.00;;;;;;4883315;29;20489;-84
2022/11/11 08:13:39;;;;;;;10.20;8.40;;;9.00;1.00;;;;;;4887632;29;20490;-85
2022/11/11 08:14:04;;;;;;;7.90;7.40;;;9.20;99.90;;;;;;4884633;29;20478;-84
2022/11/11 08:16:32;;;;;;;8.83;8.13;;;9.40;99.90;;;;;;4888352;29;20521;-83
2022/11/11 08:19:00;;;;;;;9.67;9.07;;;9.60;99.90;;;;;;4886555;29;20549;-81
2022/11/11 08:21:28;;;;;;;8.70;7.87;;;9.80;90.90;;;;;;4885160;29;20469;-82
2022/11/11 08:23:56;;;;;;;8.40;7.90;;;10.00;1.00;;;;;;4888027;29;20477;-83
2022/11/11 08:26:47;;;;;;;9.27;8.47;;;10.10;1.00;;;;;;4888499;29;20491;-81
2022/11/11 08:29:15;;;;;;;8.13;7.53;;;10.30;1.00;;;;;;4888469;29;20966;-84
2022/11/11 08:31:43;;;;;;;8.03;7.53;;;10.40;1.00;;;;;;4889980;29;21050;-82
2022/11/11 08:34:11;;;;;;;8.63;7.90;;;10.40;1.00;;;;;;4891726;29;20524;-83
2022/11/11 08:36:40;;;;;;;7.67;7.20;;;10.30;1.00;;;;;;4892763;29;20558;-83
2022/11/11 08:39:08;;;;;;;9.60;8.80;;;10.40;1.00;;;;;;4889342;29;20491;-83
2022/11/11 08:41:36;;;;;;;8.50;8.10;;;10.40;1.00;;;;;;4890591;29;20549;-82
2022/11/11 08:44:06;;;;;;;8.30;7.90;;;10.50;48.90;;;;;;4888389;29;20455;-82
2022/11/11 08:46:34;;;;;;;8.03;7.63;;;10.60;1.00;;;;;;4888680;29;20569;-83
2022/11/11 08:49:02;;;;;;;8.67;8.27;;;10.60;1.00;;;;;;4883012;29;20483;-84
2022/11/11 08:51:30;;;;;;;8.13;7.73;;;10.60;1.00;;;;;;4890554;29;20474;-83
2022/11/11 08:54:10;;;;;;;8.50;8.10;;;10.70;1.00;;;;;;4894014;29;20458;-83
2022/11/11 08:56:39;;;;;;;8.50;8.00;;;10.80;1.00;;;;;;4902052;29;20559;-83
2022/11/11 08:59:09;;;;;;;7.73;7.43;;;10.80;99.90;;;;;;4888525;29;20479;-84
2022/11/11 09:01:37;;;;;;;8.83;8.40;;;10.70;99.90;;;;;;4888721;29;20975;-83
2022/11/11 09:04:05;;;;;;;9.20;8.60;;;10.80;99.90;;;;;;4888337;29;20473;-82
2022/11/11 09:06:53;;;;;;;8.40;7.93;;;10.90;99.90;;;;;;4890689;29;20982;-83
2022/11/11 09:09:22;;;;;;;9.90;9.50;;;10.90;99.90;;;;;;4903728;29;21065;-84
2022/11/11 09:11:50;;;;;;;9.10;8.70;;;11.10;99.90;;;;;;4891560;29;20464;-83
2022/11/11 09:14:19;;;;;;;9.53;8.93;;;11.20;99.90;;;;;;4889313;29;20473;-83
2022/11/11 09:16:48;;;;;;;9.50;9.10;;;11.40;99.90;;;;;;4884394;29;20515;-82
2022/11/11 09:19:16;;;;;;;11.87;10.97;;;11.60;99.90;;;;;;4886685;29;20506;-83
2022/11/11 09:21:44;;;;;;;9.67;8.87;;;12.10;99.90;;;;;;4888479;29;20461;-83
2022/11/11 09:24:13;;;;;;;9.43;8.93;;;12.80;1.00;;;;;;4889137;29;20469;-82
2022/11/11 09:26:41;;;;;;;10.13;9.23;;;13.50;1.00;;;;;;4884422;29;20464;-83
2022/11/11 09:29:11;;;;;;;9.30;8.83;;;14.10;99.90;;;;;;4886477;29;20490;-82
2022/11/11 09:31:41;;;;;;;8.97;8.57;;;14.80;99.90;;;;;;4887442;29;20454;-83
2022/11/11 09:34:13;;;;;;;8.30;7.90;;;15.30;99.90;;;;;;4887902;29;20451;-82
2022/11/11 09:36:41;;;;;;;9.97;9.47;;;16.00;99.90;;;;;;4886546;29;20502;-82
2022/11/11 09:39:10;;;;;;;9.03;8.63;;;16.70;99.90;;;;;;4886776;29;20478;-84
2022/11/11 09:41:53;;;;;;;7.90;7.60;;;17.30;99.90;;;;;;4889605;29;20466;-83
2022/11/11 09:44:41;;;;;;;7.70;7.23;;;17.50;99.90;;;;;;4899108;29;20549;-82
2022/11/11 09:47:20;;;;;;;8.20;7.90;;;17.40;99.90;;;;;;4886484;29;21022;-83
2022/11/11 09:49:58;;;;;;;8.17;7.83;;;17.50;99.90;;;;;;4895887;29;20483;-82
2022/11/11 09:52:31;;;;;;;7.60;7.30;;;18.10;99.90;;;;;;4886862;29;20455;-83
2022/11/11 09:55:04;;;;;;;6.50;6.30;;;18.20;99.90;;;;;;4890669;29;20467;-81
2022/11/11 09:57:36;;;;;;;6.53;6.23;;;18.20;99.90;;;;;;4888077;29;20508;-84
2022/11/11 10:00:15;;;;;;;7.50;7.10;;;18.70;99.90;;;;;;4886423;29;20557;-83
2022/11/11 10:02:54;;;;;;;7.10;6.70;;;19.40;99.90;;;;;;4889095;29;20501;-83
2022/11/11 10:05:27;;;;;;;6.63;6.43;;;20.20;99.90;;;;;;4885741;29;20462;-82
2022/11/11 10:08:00;;;;;;;6.07;5.87;;;19.10;99.90;;;;;;4889595;29;20482;-83
2022/11/11 10:10:40;;;;;;;5.50;5.20;;;19.00;99.90;;;;;;4884266;29;20470;-82
2022/11/11 10:13:13;;;;;;;5.57;5.37;;;19.60;99.90;;;;;;4885246;29;20451;-83
2022/11/11 10:15:49;;;;;;;5.93;5.73;;;20.00;99.90;;;;;;4889638;29;20549;-83
2022/11/11 10:18:38;;;;;;;6.17;5.87;;;20.20;99.90;;;;;;4893567;29;20531;-84
2022/11/11 10:21:13;;;;;;;5.77;5.53;;;20.00;99.90;;;;;;4899330;29;20462;-83
2022/11/11 10:23:46;;;;;;;5.43;5.13;;;19.80;99.90;;;;;;4893607;29;20911;-81
2022/11/11 10:26:19;;;;;;;5.40;5.20;;;19.80;99.90;;;;;;4888542;29;20889;-84
2022/11/11 10:28:52;;;;;;;5.40;5.10;;;20.00;99.90;;;;;;4890636;29;20582;-84
2022/11/11 10:31:23;;;;;;;4.80;4.60;;;20.40;99.90;;;;;;4886896;29;21371;-83
2022/11/11 10:33:58;;;;;;;4.30;4.10;;;20.10;99.90;;;;;;4892363;29;20444;-81
2022/11/11 10:36:29;;;;;;;4.57;4.27;;;19.90;99.90;;;;;;4891036;29;20462;-82
2022/11/11 10:39:05;;;;;;;4.47;4.27;;;19.80;99.90;;;;;;4888188;29;20496;-84
2022/11/11 10:41:38;;;;;;;5.03;4.67;;;19.60;99.90;;;;;;4898518;29;20454;-83
2022/11/11 10:44:20;;;;;;;5.33;4.57;;;18.90;99.90;;;;;;4885515;29;20534;-84
2022/11/11 10:47:00;;;;;;;4.23;4.03;;;18.20;99.90;;;;;;4886024;29;20934;-83
2022/11/11 10:49:33;;;;;;;4.47;4.20;;;17.80;99.90;;;;;;4889446;29;20462;-83
2022/11/11 10:52:08;;;;;;;4.60;4.37;;;17.60;99.90;;;;;;4890102;29;20466;-83
2022/11/11 10:54:41;;;;;;;4.80;4.50;;;17.60;99.90;;;;;;4890746;29;20514;-81
2022/11/11 10:57:18;;;;;;;5.10;4.63;;;17.70;99.90;;;;;;4892378;29;20902;-81
2022/11/11 10:59:52;;;;;;;4.73;4.37;;;18.10;99.90;;;;;;4890209;29;20456;-83
2022/11/11 11:02:25;;;;;;;4.83;4.63;;;18.50;99.90;;;;;;4885454;29;20458;-83
2022/11/11 11:05:01;;;;;;;4.90;4.60;;;19.00;99.90;;;;;;4884865;29;20488;-84
2022/11/11 11:07:39;;;;;;;4.90;4.70;;;21.00;99.90;;;;;;4891842;29;20522;-83
2022/11/11 11:10:15;;;;;;;5.30;5.10;;;22.10;99.90;;;;;;4888468;29;20524;-83
2022/11/11 11:12:50;;;;;;;4.57;4.27;;;20.60;99.90;;;;;;4886495;29;20456;-83
2022/11/11 11:15:22;;;;;;;4.30;4.20;;;19.10;99.90;;;;;;4887231;29;20502;-84
2022/11/11 11:17:57;;;;;;;5.17;4.87;;;18.50;99.90;;;;;;4891270;29;20471;-83
2022/11/11 11:20:27;;;;;;;5.10;4.80;;;17.90;99.90;;;;;;4885080;29;20463;-83
2022/11/11 11:22:58;;;;;;;4.90;4.60;;;17.60;99.90;;;;;;4888303;29;20470;-84
2022/11/11 11:25:28;;;;;;;3.97;3.87;;;17.30;99.90;;;;;;4897261;29;20475;-84
2022/11/11 11:28:07;;;;;;;4.10;3.87;;;17.10;99.90;;;;;;4885341;29;20497;-85
2022/11/11 11:30:35;;;;;;;4.00;3.90;;;16.90;99.90;;;;;;4886186;29;20545;-84
2022/11/11 11:33:05;;;;;;;4.40;4.20;;;17.00;99.90;;;;;;4885237;29;20463;-85
2022/11/11 11:35:37;;;;;;;3.80;3.60;;;16.80;99.90;;;;;;4886442;29;20525;-85
2022/11/11 11:38:07;;;;;;;4.13;3.93;;;16.70;99.90;;;;;;4885675;29;20538;-85
2022/11/11 11:40:50;;;;;;;3.80;3.70;;;16.70;99.90;;;;;;4886037;29;20593;-84
2022/11/11 11:43:27;;;;;;;4.37;4.17;;;16.80;99.90;;;;;;4882941;29;20534;-83
2022/11/11 11:45:58;;;;;;;3.60;3.50;;;16.60;99.90;;;;;;4883604;29;20871;-84
2022/11/11 11:49:04;;;;;;;3.40;3.30;;;16.50;99.90;;;;;;4888290;29;20486;-84
2022/11/11 11:51:40;;;;;;;5.33;3.70;;;16.40;99.90;;;;;;4887736;29;20495;-84
2022/11/11 11:54:50;;;;;;;3.67;3.57;;;16.40;99.90;;;;;;4886347;29;20544;-84
2022/11/11 11:57:34;;;;;;;3.50;3.40;;;16.40;99.90;;;;;;4887559;29;20484;-84
2022/11/11 12:00:05;;;;;;;3.40;3.30;;;16.30;99.90;;;;;;4886837;29;20973;-84
2022/11/11 12:03:02;;;;;;;5.10;4.90;;;16.30;99.90;;;;;;4884767;29;20466;-84
2022/11/11 12:05:38;;;;;;;3.87;3.67;;;16.20;99.90;;;;;;4888101;29;20468;-84
2022/11/11 12:08:20;;;;;;;3.47;3.27;;;16.20;99.90;;;;;;4882242;29;20477;-84
2022/11/11 12:10:55;;;;;;;3.70;3.50;;;16.20;99.90;;;;;;4882986;29;20504;-84
2022/11/11 12:13:34;;;;;;;3.33;3.20;;;16.30;99.90;;;;;;4886896;29;20455;-84
2022/11/11 12:16:15;;;;;;;3.37;3.20;;;16.40;99.90;;;;;;4886059;29;20690;-83
2022/11/11 12:19:13;;;;;;;3.17;3.07;;;16.40;99.90;;;;;;4886786;29;20498;-84
2022/11/11 12:21:55;;;;;;;3.50;3.20;;;16.30;99.90;;;;;;4883871;29;20552;-84
2022/11/11 12:24:38;;;;;;;3.50;3.40;;;16.30;99.90;;;;;;4884843;29;20574;-84
2022/11/11 12:27:15;;;;;;;4.03;3.80;;;16.50;99.90;;;;;;4887803;29;20464;-85
2022/11/11 12:29:57;;;;;;;3.97;3.77;;;16.50;99.90;;;;;;4885122;29;20456;-84
2022/11/11 12:32:43;;;;;;;3.30;3.20;;;16.50;99.90;;;;;;4882568;29;20469;-85
2022/11/11 12:35:25;;;;;;;3.57;3.47;;;16.60;99.90;;;;;;4886260;29;20966;-84
2022/11/11 12:38:07;;;;;;;3.80;3.67;;;16.70;99.90;;;;;;4883522;29;20478;-84
2022/11/11 12:40:50;;;;;;;4.20;4.00;;;16.80;99.90;;;;;;4883915;29;20497;-84
2022/11/11 12:43:26;;;;;;;3.80;3.60;;;16.90;99.90;;;;;;4884004;29;20797;-85
2022/11/11 12:46:03;;;;;;;4.57;4.13;;;16.80;99.90;;;;;;4884694;29;20892;-84
2022/11/11 12:48:45;;;;;;;4.10;3.90;;;16.70;99.90;;;;;;4886499;29;21077;-83
2022/11/11 12:51:21;;;;;;;3.90;3.70;;;16.80;99.90;;;;;;4884735;29;20462;-85
2022/11/11 12:53:58;;;;;;;3.80;3.50;;;16.90;99.90;;;;;;4884732;29;20494;-84
2022/11/11 12:56:36;;;;;;;4.20;4.10;;;16.80;99.90;;;;;;4897266;29;21201;-84
2022/11/11 12:59:14;;;;;;;4.60;4.30;;;16.70;99.90;;;;;;4882480;29;20928;-83
2022/11/11 13:01:55;;;;;;;4.27;3.90;;;16.60;99.90;;;;;;4885107;29;20470;-84
2022/11/11 13:04:43;;;;;;;5.07;4.77;;;16.70;99.90;;;;;;4887780;29;20478;-84
2022/11/11 13:07:37;;;;;;;3.97;3.87;;;16.70;99.90;;;;;;4885511;29;21078;-85
2022/11/11 13:10:25;;;;;;;4.53;4.40;;;16.60;99.90;;;;;;4887460;29;20529;-83
2022/11/11 13:13:05;;;;;;;4.53;4.33;;;16.80;99.90;;;;;;4886670;29;20522;-84
2022/11/11 13:15:33;;;;;;;4.63;4.53;;;16.90;99.90;;;;;;4889984;29;20846;-82
2022/11/11 13:18:04;;;;;;;4.80;4.60;;;16.70;99.90;;;;;;4887021;29;20486;-82
2022/11/11 13:20:44;;;;;;;4.63;4.50;;;16.70;99.90;;;;;;4885304;29;20496;-85
2022/11/11 13:23:13;;;;;;;6.60;6.30;;;16.60;99.90;;;;;;4885079;29;20460;-84
2022/11/11 13:25:47;;;;;;;4.77;4.50;;;16.50;99.90;;;;;;4894163;29;20500;-83
2022/11/11 13:28:27;;;;;;;4.90;4.80;;;16.40;99.90;;;;;;4888242;29;20519;-84
2022/11/11 13:31:12;;;;;;;4.50;4.40;;;16.40;99.90;;;;;;4887873;29;21058;-82
2022/11/11 13:33:46;;;;;;;5.07;4.87;;;16.40;99.90;;;;;;4886647;29;20474;-83
2022/11/11 13:36:17;;;;;;;4.97;4.67;;;16.40;99.90;;;;;;4886270;29;20462;-85
2022/11/11 13:38:48;;;;;;;4.40;4.30;;;16.40;99.90;;;;;;4885868;29;20486;-83
2022/11/11 13:41:24;;;;;;;5.10;4.90;;;16.40;99.90;;;;;;4882383;29;20468;-85
2022/11/11 13:43:58;;;;;;;4.87;4.67;;;16.40;99.90;;;;;;4886656;29;20553;-84
2022/11/11 13:46:35;;;;;;;5.77;5.37;;;16.50;99.90;;;;;;4887017;29;20471;-82
2022/11/11 13:49:06;;;;;;;5.33;5.03;;;16.50;99.90;;;;;;4886564;29;20687;-84
2022/11/11 13:51:38;;;;;;;5.13;4.87;;;16.40;99.90;;;;;;4885662;29;20474;-83
2022/11/11 13:54:24;;;;;;;5.10;5.00;;;16.50;99.90;;;;;;4887765;29;20454;-83
2022/11/11 13:56:53;;;;;;;5.00;4.80;;;16.60;99.90;;;;;;4887457;29;20465;-84
2022/11/11 13:59:26;;;;;;;4.70;4.50;;;16.60;99.90;;;;;;4887469;29;20577;-84
2022/11/11 14:02:13;;;;;;;6.33;5.93;;;16.60;99.90;;;;;;4885944;29;20471;-83
2022/11/11 14:05:14;;;;;;;5.30;5.00;;;16.40;99.90;;;;;;4889126;29;21171;-83
2022/11/11 14:07:52;;;;;;;4.90;4.60;;;16.50;99.90;;;;;;4885389;29;20492;-84
2022/11/11 14:10:47;;;;;;;4.50;4.30;;;16.50;99.90;;;;;;4884467;29;20471;-84
2022/11/11 14:13:41;;;;;;;4.50;4.40;;;16.40;99.90;;;;;;4886856;29;20468;-84
2022/11/11 14:16:12;;;;;;;4.93;4.73;;;16.40;99.90;;;;;;4886573;29;20545;-83
2022/11/11 14:18:44;;;;;;;3.97;3.87;;;16.30;99.90;;;;;;4879653;29;20496;-84
2022/11/11 14:21:43;;;;;;;4.60;4.40;;;16.30;99.90;;;;;;4885762;29;20459;-85
2022/11/11 14:24:25;;;;;;;5.10;4.87;;;16.40;99.90;;;;;;4884119;29;20472;-83